createdAt,value
2023-05-05T07:33:00.786Z,54.60
2023-05-05T07:35:27.800Z,54.80
2023-05-05T07:37:54.415Z,54.60
2023-05-05T07:40:21.050Z,54.30
2023-05-05T07:42:47.678Z,54.20
2023-05-05T07:45:14.280Z,53.30
2023-05-05T07:47:40.887Z,52.90
2023-05-05T07:50:07.869Z,54.00
2023-05-05T07:52:45.161Z,52.80
2023-05-05T07:55:16.513Z,53.00
2023-05-05T07:57:43.204Z,53.10
2023-05-05T08:00:10.252Z,53.00
2023-05-05T08:02:37.186Z,53.60
2023-05-05T08:05:04.532Z,53.10
2023-05-05T08:07:31.224Z,53.40
2023-05-05T08:09:57.776Z,53.40
2023-05-05T08:12:24.899Z,53.80
2023-05-05T08:14:51.503Z,53.40
2023-05-05T08:17:18.436Z,53.30
2023-05-05T08:19:45.008Z,53.50
2023-05-05T08:22:11.650Z,53.60
2023-05-05T08:24:38.221Z,53.50
2023-05-05T08:27:04.805Z,53.40
2023-05-05T08:29:31.371Z,52.80
2023-05-05T08:31:58.073Z,52.80
2023-05-05T08:34:24.813Z,52.60
2023-05-05T08:36:51.557Z,52.60
2023-05-05T08:39:18.140Z,52.70
2023-05-05T08:41:44.751Z,52.90
2023-05-05T08:44:11.696Z,53.00
2023-05-05T08:46:39.083Z,53.00
2023-05-05T08:49:07.784Z,52.80
2023-05-05T08:51:39.105Z,52.90
2023-05-05T08:54:06.952Z,53.40
2023-05-05T08:56:36.943Z,52.30
2023-05-05T08:59:03.967Z,52.10
2023-05-05T09:01:31.958Z,52.20
2023-05-05T09:03:59.025Z,52.30
2023-05-05T09:06:27.336Z,52.50
2023-05-05T09:08:54.392Z,52.40
2023-05-05T09:11:22.588Z,51.60
2023-05-05T09:13:49.990Z,52.10
2023-05-05T09:16:16.671Z,52.30
2023-05-05T09:18:43.278Z,51.80
2023-05-05T09:21:22.695Z,50.60
2023-05-05T09:24:08.371Z,49.60
2023-05-05T09:26:36.459Z,49.90
2023-05-05T09:29:03.444Z,50.00
2023-05-05T09:31:30.765Z,49.70
2023-05-05T09:34:00.841Z,49.30
2023-05-05T09:36:49.748Z,49.70
2023-05-05T09:39:20.191Z,50.10
2023-05-05T09:41:47.162Z,51.00
2023-05-05T09:44:16.086Z,50.30
2023-05-05T09:46:51.035Z,50.40
2023-05-05T09:49:19.220Z,50.60
2023-05-05T09:51:46.629Z,49.80
2023-05-05T09:54:23.253Z,48.90
2023-05-05T09:56:50.724Z,48.60
2023-05-05T09:59:17.313Z,48.60
2023-05-05T10:01:44.011Z,48.60
2023-05-05T10:04:24.842Z,48.50
2023-05-05T10:06:51.530Z,48.30
2023-05-05T10:09:18.133Z,48.60
2023-05-05T10:11:45.971Z,48.90
2023-05-05T10:14:13.565Z,49.40
2023-05-05T10:16:44.294Z,48.80
2023-05-05T10:19:14.186Z,48.50
2023-05-05T10:21:42.328Z,48.70
2023-05-05T10:24:16.241Z,48.90
2023-05-05T10:26:44.156Z,48.80
2023-05-05T10:29:16.868Z,48.40
2023-05-05T10:31:49.885Z,48.40
2023-05-05T10:34:35.814Z,48.00
2023-05-05T10:37:04.494Z,48.80
2023-05-05T10:39:31.428Z,48.00
2023-05-05T10:42:00.290Z,47.60
2023-05-05T10:44:27.465Z,48.20
2023-05-05T10:46:54.300Z,47.50
2023-05-05T10:49:36.181Z,47.80
2023-05-05T10:52:12.173Z,47.80
2023-05-05T10:54:57.079Z,48.30
2023-05-05T10:57:26.901Z,48.90
2023-05-05T10:59:53.510Z,49.10
2023-05-05T11:02:26.641Z,49.10
2023-05-05T11:05:14.287Z,48.40
2023-05-05T11:07:41.860Z,48.50
2023-05-05T11:10:09.291Z,48.70
2023-05-05T11:12:59.905Z,49.50
2023-05-05T11:15:26.598Z,49.60
2023-05-05T11:17:54.518Z,48.70
2023-05-05T11:20:39.859Z,48.90
2023-05-05T11:23:06.630Z,48.70
2023-05-05T11:25:36.654Z,48.30
2023-05-05T11:28:08.135Z,48.40
2023-05-05T11:30:35.436Z,49.20
2023-05-05T11:33:20.963Z,48.80
2023-05-05T11:36:07.367Z,48.40
2023-05-05T11:48:53.519Z,50.70
2023-05-05T11:51:20.160Z,50.80
2023-05-05T11:53:47.948Z,50.50
2023-05-05T11:56:20.462Z,49.10
2023-05-05T11:58:47.925Z,48.50
2023-05-05T12:01:15.242Z,48.90
2023-05-05T12:03:42.051Z,49.10
2023-05-05T12:06:09.000Z,49.20
2023-05-05T12:08:39.200Z,48.80
2023-05-05T12:11:07.330Z,48.90
2023-05-05T12:13:34.123Z,49.00
2023-05-05T12:16:10.538Z,50.50
2023-05-05T12:18:37.226Z,50.30
2023-05-05T12:21:14.811Z,48.60
2023-05-05T12:23:41.371Z,47.70
2023-05-05T12:26:08.017Z,46.90
2023-05-05T12:28:45.322Z,48.20
2023-05-05T12:31:11.947Z,49.60
2023-05-05T12:33:39.438Z,50.10
2023-05-05T12:36:07.046Z,49.10
2023-05-05T12:38:33.653Z,48.80
2023-05-05T12:41:00.314Z,48.80
2023-05-05T12:43:28.253Z,48.70
2023-05-05T12:46:11.975Z,49.30
2023-05-05T12:48:39.832Z,48.50
2023-05-05T12:51:13.779Z,49.80
2023-05-05T12:53:40.333Z,50.10
2023-05-05T12:56:06.932Z,49.70
2023-05-05T12:58:48.833Z,49.60
2023-05-05T13:01:15.506Z,50.10
2023-05-05T13:03:42.207Z,50.70
2023-05-05T13:06:21.446Z,49.30
2023-05-05T13:08:48.231Z,47.90
2023-05-05T13:11:14.830Z,48.50
2023-05-05T13:13:42.183Z,47.80
2023-05-05T13:16:08.847Z,51.90
2023-05-05T13:18:48.360Z,50.40
2023-05-05T13:21:15.007Z,50.20
2023-05-05T13:23:45.257Z,51.00
2023-05-05T13:26:12.721Z,52.70
2023-05-05T13:28:39.913Z,49.60
2023-05-05T13:31:06.664Z,49.80
2023-05-05T13:33:33.467Z,48.10
2023-05-05T13:36:00.897Z,47.70
2023-05-05T13:38:27.706Z,46.50
2023-05-05T13:40:54.598Z,47.10
2023-05-05T13:43:21.227Z,47.40
2023-05-05T13:45:47.862Z,47.40
2023-05-05T13:48:14.459Z,47.40
2023-05-05T13:50:41.016Z,47.60
2023-05-05T13:53:07.595Z,47.20
2023-05-05T13:55:34.206Z,47.60
2023-05-05T13:58:00.867Z,48.40
2023-05-05T14:00:27.896Z,49.20
2023-05-05T14:02:54.471Z,48.50
2023-05-05T14:05:21.258Z,47.90
2023-05-05T14:07:47.847Z,48.50
2023-05-05T14:10:14.392Z,48.50
2023-05-05T14:12:40.988Z,48.00
2023-05-05T14:15:08.275Z,48.40
2023-05-05T14:17:35.039Z,47.30
2023-05-05T14:20:01.690Z,47.00
2023-05-05T14:22:28.244Z,47.10
2023-05-05T14:24:54.965Z,47.60
2023-05-05T14:27:21.568Z,47.90
2023-05-05T14:29:48.137Z,47.70
2023-05-05T14:32:14.757Z,48.00
2023-05-05T14:34:41.525Z,48.60
2023-05-05T14:37:08.074Z,48.60
2023-05-05T14:39:34.659Z,48.60
2023-05-05T14:42:01.914Z,49.40
2023-05-05T14:44:28.501Z,48.40
2023-05-05T14:46:55.288Z,48.70
2023-05-05T14:49:21.832Z,48.60
2023-05-05T14:51:48.628Z,48.50
2023-05-05T14:54:27.348Z,47.90
2023-05-05T14:56:55.265Z,48.70
2023-05-05T14:59:21.838Z,48.90
2023-05-05T15:01:48.615Z,48.40
2023-05-05T15:04:15.856Z,48.70
2023-05-05T15:06:42.487Z,48.50
2023-05-05T15:09:09.051Z,48.60
2023-05-05T15:11:35.709Z,49.40
2023-05-05T15:14:02.428Z,48.90
2023-05-05T15:16:29.104Z,47.90
2023-05-05T15:18:56.663Z,48.00
2023-05-05T15:21:23.215Z,48.70
2023-05-05T15:23:49.774Z,48.10
2023-05-05T15:26:16.379Z,48.40
2023-05-05T15:28:42.933Z,48.80
2023-05-05T15:31:09.471Z,48.90
2023-05-05T15:33:36.062Z,48.90
2023-05-05T15:36:02.682Z,49.30
2023-05-05T15:38:29.487Z,49.60
2023-05-05T15:40:56.058Z,50.00
2023-05-05T15:43:22.659Z,49.60
2023-05-05T15:45:49.318Z,49.50
2023-05-05T15:48:15.928Z,49.40
2023-05-05T15:50:42.495Z,50.00
2023-05-05T15:53:09.054Z,49.70
2023-05-05T15:55:35.886Z,51.00
2023-05-05T15:58:02.491Z,50.40
2023-05-05T16:00:29.457Z,52.80
2023-05-05T16:02:56.420Z,51.10
2023-05-05T16:05:23.356Z,52.70
2023-05-05T16:07:50.101Z,52.30
2023-05-05T16:10:18.573Z,52.70
2023-05-05T16:12:45.163Z,53.00
2023-05-05T16:15:11.994Z,53.80
2023-05-05T16:17:38.712Z,53.90
2023-05-05T16:20:05.632Z,53.80
2023-05-05T16:22:32.302Z,53.30
2023-05-05T16:24:58.986Z,50.90
2023-05-05T16:27:26.581Z,52.10
2023-05-05T16:29:53.287Z,51.70
2023-05-05T16:32:19.867Z,51.20
2023-05-05T16:34:46.417Z,51.70
2023-05-05T16:37:13.285Z,52.30
2023-05-05T16:39:41.151Z,52.00
2023-05-05T16:42:08.006Z,51.40
2023-05-05T16:44:34.595Z,51.70
2023-05-05T16:47:01.167Z,51.30
2023-05-05T16:49:27.870Z,51.70
2023-05-05T16:51:54.514Z,51.40
2023-05-05T16:54:21.106Z,51.70
2023-05-05T16:56:47.674Z,51.80
2023-05-05T16:59:16.531Z,51.90
2023-05-05T17:01:43.481Z,52.00
2023-05-05T17:04:10.955Z,51.70
2023-05-05T17:06:37.627Z,53.10
2023-05-05T17:09:06.112Z,51.90
2023-05-05T17:11:32.740Z,52.00
2023-05-05T17:13:59.299Z,52.50
2023-05-05T17:16:26.165Z,52.20
2023-05-05T17:18:53.702Z,51.40
2023-05-05T17:21:20.287Z,52.10
2023-05-05T17:23:46.817Z,52.00
2023-05-05T17:26:13.783Z,51.90
2023-05-05T17:28:40.324Z,51.80
2023-05-05T17:31:06.909Z,52.50
2023-05-05T17:33:33.527Z,52.00
2023-05-05T17:36:00.211Z,52.30
2023-05-05T17:38:26.777Z,54.10
2023-05-05T17:40:53.315Z,53.10
2023-05-05T17:43:19.897Z,52.80
2023-05-05T17:45:46.732Z,54.10
2023-05-05T17:48:13.364Z,54.20
2023-05-05T17:50:41.367Z,53.90
2023-05-05T17:53:10.644Z,52.80
2023-05-05T17:55:37.274Z,53.80
2023-05-05T17:58:03.897Z,53.60
2023-05-05T18:00:30.589Z,54.00
2023-05-05T18:02:57.255Z,54.30
2023-05-05T18:05:23.931Z,53.40
2023-05-05T18:07:50.646Z,54.10
2023-05-05T18:10:17.204Z,55.00
2023-05-05T18:12:43.916Z,54.60
2023-05-05T18:15:11.299Z,55.00
2023-05-05T18:17:38.072Z,56.20
2023-05-05T18:20:06.866Z,55.50
2023-05-05T18:22:33.816Z,55.00
2023-05-05T18:25:00.461Z,55.40
2023-05-05T18:27:27.669Z,56.20
2023-05-05T18:29:54.643Z,56.50
2023-05-05T18:32:21.743Z,56.60
2023-05-05T18:34:48.440Z,56.40
2023-05-05T18:37:15.143Z,56.60
2023-05-05T18:39:43.908Z,56.00
2023-05-05T18:42:12.674Z,56.40
2023-05-05T18:44:39.255Z,55.90
2023-05-05T18:47:06.810Z,56.80
2023-05-05T18:49:33.849Z,57.00
2023-05-05T18:52:00.506Z,56.30
2023-05-05T18:54:27.062Z,57.00
2023-05-05T18:56:53.675Z,56.90
2023-05-05T18:59:20.848Z,56.70
2023-05-05T19:01:47.625Z,56.10
2023-05-05T19:04:29.592Z,57.30
2023-05-05T19:06:57.122Z,57.10
2023-05-05T19:09:23.711Z,56.90
2023-05-05T19:11:50.912Z,57.50
2023-05-05T19:14:17.713Z,57.10
2023-05-05T19:16:44.399Z,56.30
2023-05-05T19:19:11.123Z,56.60
2023-05-05T19:21:38.854Z,56.50
2023-05-05T19:24:07.207Z,56.50
2023-05-05T19:26:33.810Z,56.40
2023-05-05T19:29:00.399Z,56.40
2023-05-05T19:31:31.224Z,56.40
2023-05-05T19:33:59.870Z,56.50
2023-05-05T19:36:27.711Z,56.70
2023-05-05T19:38:55.433Z,56.80
2023-05-05T19:41:22.040Z,56.20
2023-05-05T19:43:49.889Z,56.10
2023-05-05T19:46:17.121Z,55.50
2023-05-05T19:48:44.307Z,56.20
2023-05-05T19:51:10.859Z,56.30
2023-05-05T19:53:37.495Z,56.10
2023-05-05T19:56:04.867Z,56.60
2023-05-05T19:58:51.444Z,55.80
2023-05-05T20:01:18.049Z,56.20
2023-05-05T20:03:44.716Z,56.20
2023-05-05T20:06:11.344Z,55.90
2023-05-05T20:08:40.768Z,56.90
2023-05-05T20:11:07.334Z,56.60
2023-05-05T20:13:34.361Z,56.70
2023-05-05T20:16:00.954Z,57.00
2023-05-05T20:18:27.574Z,56.70
2023-05-05T20:20:54.303Z,57.20
2023-05-05T20:23:21.274Z,57.20
2023-05-05T20:25:47.834Z,57.30
2023-05-05T20:28:14.377Z,56.30
2023-05-05T20:30:40.947Z,56.30
2023-05-05T20:33:07.538Z,56.90
2023-05-05T20:35:34.365Z,56.90
2023-05-05T20:38:03.505Z,57.40
2023-05-05T20:40:30.367Z,57.10
2023-05-05T20:42:57.015Z,57.50
2023-05-05T20:45:24.036Z,57.70
2023-05-05T20:47:50.798Z,57.30
2023-05-05T20:50:20.560Z,57.40
2023-05-05T20:52:47.411Z,57.00
2023-05-05T20:55:13.963Z,57.40
2023-05-05T20:57:40.537Z,57.40
2023-05-05T21:00:07.715Z,57.40
2023-05-05T21:02:34.926Z,57.60
2023-05-05T21:05:05.213Z,57.20
2023-05-05T21:07:35.316Z,57.00
2023-05-05T21:10:02.382Z,57.10
2023-05-05T21:12:29.377Z,56.50
2023-05-05T21:14:59.562Z,56.50
2023-05-05T21:17:26.794Z,56.60
2023-05-05T21:19:53.708Z,56.70
2023-05-05T21:22:20.361Z,57.00
2023-05-05T21:24:46.936Z,57.20
2023-05-05T21:27:13.720Z,57.10
2023-05-05T21:29:40.905Z,57.60
2023-05-05T21:32:08.350Z,58.30
2023-05-05T21:34:35.086Z,58.60
2023-05-05T21:37:01.669Z,58.20
2023-05-05T21:39:29.250Z,57.30
2023-05-05T21:41:56.071Z,58.10
2023-05-05T21:44:22.731Z,58.10
2023-05-05T21:46:49.545Z,57.40
2023-05-05T21:49:16.552Z,56.80
2023-05-05T21:51:43.400Z,57.60
2023-05-05T21:54:10.343Z,57.90
2023-05-05T21:56:37.242Z,57.30
2023-05-05T21:59:04.388Z,58.30
2023-05-05T22:01:31.086Z,57.70
2023-05-05T22:03:57.877Z,58.20
2023-05-05T22:06:24.564Z,59.00
2023-05-05T22:08:51.236Z,58.40
2023-05-05T22:11:18.583Z,58.30
2023-05-05T22:13:45.956Z,59.00
2023-05-05T22:16:12.852Z,59.20
2023-05-05T22:18:39.456Z,59.30
2023-05-05T22:21:06.082Z,59.30
2023-05-05T22:23:32.673Z,59.40
2023-05-05T22:25:59.248Z,59.70
2023-05-05T22:28:26.800Z,59.40
2023-05-05T22:30:53.471Z,59.40
2023-05-05T22:33:20.153Z,59.60
2023-05-05T22:35:46.712Z,59.60
2023-05-05T22:38:13.255Z,59.40
2023-05-05T22:40:39.861Z,59.60
2023-05-05T22:43:06.417Z,59.60
2023-05-05T22:45:33.211Z,59.50
2023-05-05T22:47:59.897Z,59.50
2023-05-05T22:50:26.629Z,59.80
2023-05-05T22:52:53.208Z,59.70
2023-05-05T22:55:20.403Z,59.50
2023-05-05T22:57:47.372Z,59.30
2023-05-05T23:00:14.579Z,59.40
2023-05-05T23:02:41.642Z,59.10
2023-05-05T23:05:08.679Z,59.00
2023-05-05T23:07:35.580Z,59.30
2023-05-05T23:10:02.204Z,59.50
2023-05-05T23:12:28.899Z,59.40
2023-05-05T23:14:55.685Z,59.20
2023-05-05T23:17:22.425Z,59.40
2023-05-05T23:19:49.289Z,59.70
2023-05-05T23:22:17.656Z,59.40
2023-05-05T23:24:44.207Z,59.20
2023-05-05T23:27:10.757Z,59.30
2023-05-05T23:29:37.319Z,59.40
2023-05-05T23:32:03.884Z,59.00
2023-05-05T23:34:30.475Z,59.20
2023-05-05T23:36:57.127Z,59.40
2023-05-05T23:39:23.740Z,59.30
2023-05-05T23:41:50.306Z,59.60
2023-05-05T23:44:16.884Z,60.00
2023-05-05T23:46:43.549Z,59.50
2023-05-05T23:49:10.245Z,59.60
2023-05-05T23:51:36.787Z,59.40
2023-05-05T23:54:03.331Z,59.00
2023-05-05T23:56:29.883Z,59.20
2023-05-05T23:58:56.450Z,59.30
